Strona główna
METAR-TAF:

METAR-TAF

Lotnisko :

Port lotniczy Niamey

Niamey, Niger

Szerokość geograficzna: 13-29N, Długość geograficzna: 002-10E, wysokość: 223 m

Aktualna obserwacja pogody

Raport powstał 29 minut temu, godzina 23:00 UTC
Wiatr 4 kt od północno-północny zachód
Temperatura 28°C
Wilgotność 32%
Ciśnienie 1012 hPa
Widzialność: 4500 m
pył

METAR: DRRN 272300Z 33004KT 4500 DU NSC 28/10 Q1012 NOSIG

czas: 00:29 (23:29 UTC)

Prognoza

Raport powstał 6 godziny i 29 minut temu, godzina 17:00 UTC
Prognoza ważna od 27 godzina 18 UTC do 28 godzina 24 UTC
Wiatr 5 kt od wschód
Widzialność: 6000 m
Przejściowo
od 27 godzina 18 UTC do 27 godzina 20 UTC
Widzialność: 4000 m
pył
Przejściowo
od 28 godzina 06 UTC do 28 godzina 08 UTC
Widzialność: 4000 m
pył

TAF: DRRN 271700Z 2718/2824 08005KT 6000 NSC TEMPO 2718/2720 4000 DU TEMPO 2806/2808 4000 DU

Obserwacja i prognoza pogody dla ponad 4000 lotnisk (raport METAR i TAF).

Dostępne stacje oznaczono żółtymi i czerwonymi punktami na mapie.

Najedź kursorem aby zobaczyć nazwę stacji.

Kliknij aby zobaczyć obserwacje i prognozy pogody.

Aby zmienić mapę: kliknij na zielony przycisk z czarnym krzyżykiem, aby powiększyć; na zielony przycisk z myślnikiem, aby pomniejszyć; na zielone strzałki, aby przejść do map sąsiednich.


METAR-TAF: